Time;durP1;ratioP1;P1;durP2;ratioP2;P2;SDS_P1;SDS_P2;PMS_P1;PMS_P2;Temp;Humidity;BMP_temperature;BMP_pressure;BME280_temperature;BME280_humidity;BME280_pressure;Samples;Min_cycle;Max_cycle;Signal;HPM_P1;HPM_P2
2022/11/17 00:01:06;;;;;;;;;;;;;;;8.98;100.00;98748.50;4953700;28;19965;-67
2022/11/17 00:03:31;;;;;;;;;;;;;;;8.92;100.00;98744.38;4953853;28;19922;-67
2022/11/17 00:06:01;;;;;;;;;;;;;;;8.99;100.00;98732.75;4953655;28;19918;-67
2022/11/17 00:08:26;;;;;;;;;;;;;;;8.97;100.00;98724.03;4953962;28;19941;-67
2022/11/17 00:10:51;;;;;;;;;;;;;;;9.02;100.00;98724.56;4953810;28;20251;-67
2022/11/17 00:16:00;;;;;;;;;;;;;;;8.99;100.00;98705.16;4957548;29;19968;-67
2022/11/17 00:21:22;;;;;;;;;;;;;;;8.96;100.00;98686.56;4957286;29;20001;-68
2022/11/17 00:23:48;;;;;;;;;;;;;;;8.99;100.00;98680.34;4957229;28;19918;-67
2022/11/17 00:26:19;;;;;;;;;;;;;;;8.94;100.00;98677.84;4957224;28;19914;-68
2022/11/17 00:28:45;;;;;;;;;;;;;;;8.99;100.00;98667.38;4957047;28;19914;-67
2022/11/17 00:34:04;;;;;;;;;;;;;;;9.02;100.00;98655.63;4957241;29;19944;-68
2022/11/17 00:36:29;;;;;;;;;;;;;;;9.03;100.00;98646.19;4956796;29;20001;-68
2022/11/17 00:38:55;;;;;;;;;;;;;;;9.09;100.00;98630.22;4954681;28;20394;-66
2022/11/17 00:41:20;;;;;;;;;;;;;;;9.12;100.00;98636.97;4955189;29;19916;-67
2022/11/17 00:43:45;;;;;;;;;;;;;;;9.09;100.00;98632.97;4956749;28;20003;-69
2022/11/17 00:46:11;;;;;;;;;;;;;;;9.04;100.00;98614.72;4956622;28;20291;-66
2022/11/17 00:48:37;;;;;;;;;;;;;;;9.04;100.00;98624.97;4960827;28;19914;-67
2022/11/17 00:51:02;;;;;;;;;;;;;;;9.08;100.00;98614.03;4975770;28;20601;-67
2022/11/17 00:53:27;;;;;;;;;;;;;;;9.00;100.00;98599.22;4975028;28;19921;-66
2022/11/17 00:55:53;;;;;;;;;;;;;;;9.02;100.00;98616.22;4975817;28;20335;-68
2022/11/17 00:58:18;;;;;;;;;;;;;;;9.09;100.00;98601.84;4975868;28;19918;-67
2022/11/17 01:00:43;;;;;;;;;;;;;;;9.08;100.00;98592.75;4975787;28;19918;-68
2022/11/17 01:03:08;;;;;;;;;;;;;;;9.04;100.00;98591.88;4975743;28;20416;-67
2022/11/17 01:05:34;;;;;;;;;;;;;;;9.04;100.00;98602.91;4975539;28;19918;-68
2022/11/17 01:07:59;;;;;;;;;;;;;;;9.04;100.00;98595.41;4975471;28;19918;-68
2022/11/17 01:10:24;;;;;;;;;;;;;;;9.06;100.00;98597.84;4975474;28;20413;-67
2022/11/17 01:12:49;;;;;;;;;;;;;;;9.14;100.00;98590.53;4975199;28;19918;-68
2022/11/17 01:15:14;;;;;;;;;;;;;;;9.27;100.00;98581.06;4975287;28;19918;-67
2022/11/17 01:17:40;;;;;;;;;;;;;;;9.17;100.00;98587.88;4975430;28;19918;-67
2022/11/17 01:20:05;;;;;;;;;;;;;;;9.02;100.00;98588.66;4975042;28;19930;-68
2022/11/17 01:22:30;;;;;;;;;;;;;;;9.09;100.00;98599.09;4974920;28;19918;-67
2022/11/17 01:24:55;;;;;;;;;;;;;;;9.08;100.00;98581.72;4975186;28;19957;-68
2022/11/17 01:27:21;;;;;;;;;;;;;;;9.10;100.00;98571.13;4975240;28;20005;-67
2022/11/17 01:29:46;;;;;;;;;;;;;;;9.16;100.00;98579.97;4973823;28;20282;-67
2022/11/17 01:32:11;;;;;;;;;;;;;;;9.15;100.00;98568.13;4974990;28;19989;-67
2022/11/17 01:34:36;;;;;;;;;;;;;;;9.24;100.00;98562.44;4974855;28;19914;-66
2022/11/17 01:37:20;;;;;;;;;;;;;;;9.11;100.00;98553.44;4974900;28;19918;-67
2022/11/17 01:39:46;;;;;;;;;;;;;;;9.16;100.00;98546.88;4974951;28;20024;-67
2022/11/17 01:42:16;;;;;;;;;;;;;;;9.15;100.00;98548.00;4971011;28;19918;-67
2022/11/17 01:44:44;;;;;;;;;;;;;;;9.19;100.00;98544.19;4974496;28;19925;-67
2022/11/17 01:47:16;;;;;;;;;;;;;;;9.13;100.00;98555.84;4974380;28;20295;-67
2022/11/17 01:49:41;;;;;;;;;;;;;;;9.20;100.00;98550.53;4974562;28;19924;-66
2022/11/17 01:52:10;;;;;;;;;;;;;;;9.15;100.00;98546.06;4974605;28;20001;-68
2022/11/17 01:54:37;;;;;;;;;;;;;;;9.29;100.00;98536.56;4974375;28;20397;-68
2022/11/17 01:57:05;;;;;;;;;;;;;;;9.26;100.00;98535.31;4974554;28;19954;-68
2022/11/17 01:59:30;;;;;;;;;;;;;;;9.19;100.00;98535.91;4974363;28;20358;-67
2022/11/17 02:01:55;;;;;;;;;;;;;;;9.20;100.00;98523.72;4989144;28;20017;-68
2022/11/17 02:04:34;;;;;;;;;;;;;;;9.20;100.00;98520.19;4974332;28;19914;-66
2022/11/17 02:07:03;;;;;;;;;;;;;;;9.21;100.00;98525.34;4974373;28;19914;-67
2022/11/17 02:09:29;;;;;;;;;;;;;;;9.19;100.00;98526.84;4972887;28;20283;-67
2022/11/17 02:11:57;;;;;;;;;;;;;;;9.23;100.00;98515.91;4974109;28;19981;-67
2022/11/17 02:14:22;;;;;;;;;;;;;;;9.25;100.00;98521.88;4987985;28;19968;-65
2022/11/17 02:16:47;;;;;;;;;;;;;;;9.30;100.00;98516.09;4991088;22;19926;-54
2022/11/17 02:19:14;;;;;;;;;;;;;;;9.30;100.00;98516.09;5013646;28;20369;-55
2022/11/17 02:22:01;;;;;;;;;;;;;;;9.42;100.00;98506.91;5014188;28;20197;-56
2022/11/17 02:24:45;;;;;;;;;;;;;;;9.43;100.00;98508.53;5011720;28;19928;-55
2022/11/17 02:27:29;;;;;;;;;;;;;;;9.36;100.00;98489.81;5013009;28;19917;-56
2022/11/17 02:30:03;;;;;;;;;;;;;;;9.39;100.00;98502.91;5012968;28;20350;-56
2022/11/17 02:32:28;;;;;;;;;;;;;;;9.43;100.00;98486.44;5012860;28;20337;-57
2022/11/17 02:34:58;;;;;;;;;;;;;;;9.42;100.00;98496.69;5011501;28;20016;-55
2022/11/17 02:37:30;;;;;;;;;;;;;;;9.37;100.00;98494.19;5011162;28;19914;-54
2022/11/17 02:40:08;;;;;;;;;;;;;;;9.43;100.00;98481.75;5012166;28;19943;-54
2022/11/17 02:45:39;;;;;;;;;;;;;;;9.40;100.00;98468.66;5012156;28;20008;-55
2022/11/17 02:48:09;;;;;;;;;;;;;;;9.39;100.00;98489.13;5012169;28;19917;-55
2022/11/17 02:50:35;;;;;;;;;;;;;;;9.46;100.00;98474.72;5012271;28;19966;-55
2022/11/17 02:53:01;;;;;;;;;;;;;;;9.41;100.00;98470.25;5012449;28;19917;-56
2022/11/17 02:55:26;;;;;;;;;;;;;;;9.43;100.00;98467.13;5008699;28;20304;-55
2022/11/17 02:57:52;;;;;;;;;;;;;;;9.38;100.00;98482.00;5012569;28;20008;-56
2022/11/17 03:00:18;;;;;;;;;;;;;;;9.37;100.00;98472.13;5012555;28;19917;-54
2022/11/17 03:03:01;;;;;;;;;;;;;;;9.33;100.00;98460.22;5012151;28;19918;-56
2022/11/17 03:05:45;;;;;;;;;;;;;;;9.31;100.00;98441.22;5010748;28;20568;-56
2022/11/17 03:08:31;;;;;;;;;;;;;;;9.35;100.00;98422.81;5010782;28;19921;-55
2022/11/17 03:10:58;;;;;;;;;;;;;;;9.31;100.00;98421.91;5008852;28;19936;-55
2022/11/17 03:13:42;;;;;;;;;;;;;;;9.35;100.00;98416.50;5011388;28;19913;-55
2022/11/17 03:16:17;;;;;;;;;;;;;;;9.25;100.00;98406.81;5012245;28;19918;-55
2022/11/17 03:18:44;;;;;;;;;;;;;;;9.32;100.00;98408.94;5011237;28;19917;-55
2022/11/17 03:21:17;;;;;;;;;;;;;;;9.26;100.00;98402.09;5011469;28;20375;-54
2022/11/17 03:23:51;;;;;;;;;;;;;;;9.25;100.00;98406.81;5011643;28;20388;-54
2022/11/17 03:26:37;;;;;;;;;;;;;;;9.24;100.00;98388.63;5011534;28;19924;-54
2022/11/17 03:29:05;;;;;;;;;;;;;;;9.25;100.00;98392.22;5011558;28;20273;-53
2022/11/17 03:31:31;;;;;;;;;;;;;;;9.23;100.00;98389.00;5011554;28;19979;-55
2022/11/17 03:33:57;;;;;;;;;;;;;;;9.19;100.00;98394.44;5011340;28;19913;-55
2022/11/17 03:36:25;;;;;;;;;;;;;;;9.23;100.00;98389.00;5011497;28;19917;-56
2022/11/17 03:38:57;;;;;;;;;;;;;;;9.18;100.00;98392.84;5011449;28;20009;-56
2022/11/17 03:41:22;;;;;;;;;;;;;;;9.12;100.00;98384.03;5011572;28;20609;-56
2022/11/17 03:43:50;;;;;;;;;;;;;;;9.10;100.00;98391.84;5011661;28;20412;-56
2022/11/17 03:46:18;;;;;;;;;;;;;;;9.07;100.00;98387.03;5011389;28;19913;-56
2022/11/17 03:48:47;;;;;;;;;;;;;;;9.04;100.00;98383.03;5011272;28;19918;-57
2022/11/17 03:51:27;;;;;;;;;;;;;;;9.04;100.00;98371.22;5011348;28;20004;-53
2022/11/17 03:53:52;;;;;;;;;;;;;;;9.03;100.00;98375.94;5011101;28;20365;-54
2022/11/17 03:56:33;;;;;;;;;;;;;;;8.96;100.00;98369.47;5007323;28;19913;-56
2022/11/17 03:59:20;;;;;;;;;;;;;;;8.91;100.00;98378.78;5011097;28;19917;-56
2022/11/17 04:01:46;;;;;;;;;;;;;;;8.89;100.00;98362.59;5011219;28;20008;-55
2022/11/17 04:04:14;;;;;;;;;;;;;;;8.87;100.00;98367.69;5011426;28;20004;-57
2022/11/17 04:06:40;;;;;;;;;;;;;;;8.88;100.00;98358.22;5011180;28;19922;-54
2022/11/17 04:09:05;;;;;;;;;;;;;;;8.93;100.00;98359.13;5011048;28;19929;-55
2022/11/17 04:16:58;;;;;;;;;;;;;;;9.02;100.00;98341.22;5011164;28;19944;-56
2022/11/17 04:19:23;;;;;;;;;;;;;;;9.10;100.00;98346.94;5009629;28;19914;-54
2022/11/17 04:21:48;;;;;;;;;;;;;;;9.23;100.00;98353.94;5010851;28;19967;-56
2022/11/17 04:24:14;;;;;;;;;;;;;;;9.18;100.00;98355.00;5011069;28;20541;-56
2022/11/17 04:29:22;;;;;;;;;;;;;;;9.32;100.00;98353.75;5011030;28;19935;-55
2022/11/17 04:31:48;;;;;;;;;;;;;;;9.30;100.00;98348.59;5009298;28;19914;-54
2022/11/17 04:34:13;;;;;;;;;;;;;;;9.30;100.00;98348.59;5010805;28;19913;-56
2022/11/17 04:36:42;;;;;;;;;;;;;;;9.32;100.00;98351.00;5010731;28;19919;-54
2022/11/17 04:39:07;;;;;;;;;;;;;;;9.37;100.00;98339.66;5010684;28;20439;-55
2022/11/17 04:44:17;;;;;;;;;;;;;;;9.32;100.00;98329.72;5011030;28;19920;-54
2022/11/17 04:46:43;;;;;;;;;;;;;;;9.34;100.00;98357.75;5010357;28;19917;-55
2022/11/17 04:49:08;;;;;;;;;;;;;;;9.30;100.00;98350.53;5010560;28;20000;-55
2022/11/17 04:51:34;;;;;;;;;;;;;;;9.35;100.00;98333.72;5010546;28;19917;-57
2022/11/17 04:54:00;;;;;;;;;;;;;;;9.31;100.00;98330.88;5010070;28;19925;-53
2022/11/17 04:56:25;;;;;;;;;;;;;;;9.39;100.00;98312.53;5003449;28;19914;-53
2022/11/17 04:58:51;;;;;;;;;;;;;;;9.34;100.00;98302.56;5012470;28;20003;-54
2022/11/17 05:01:17;;;;;;;;;;;;;;;9.39;100.00;98320.78;5013069;28;19949;-54
2022/11/17 05:03:46;;;;;;;;;;;;;;;9.38;100.00;98310.13;5014423;28;19961;-58
2022/11/17 05:06:13;;;;;;;;;;;;;;;9.29;100.00;98313.06;5013861;28;20064;-55
2022/11/17 05:08:38;;;;;;;;;;;;;;;9.27;100.00;98307.94;5014330;28;20280;-54
2022/11/17 05:13:49;;;;;;;;;;;;;;;9.30;100.00;98303.66;5013031;28;19947;-55
2022/11/17 05:18:58;;;;;;;;;;;;;;;9.24;100.00;98300.38;5014370;28;19927;-56
2022/11/17 05:21:23;;;;;;;;;;;;;;;9.27;100.00;98313.44;5014277;28;19917;-54
2022/11/17 05:23:54;;;;;;;;;;;;;;;9.26;100.00;98313.81;5013812;28;19960;-55
2022/11/17 05:26:23;;;;;;;;;;;;;;;9.27;100.00;98307.94;5012881;28;19944;-54
2022/11/17 05:28:49;;;;;;;;;;;;;;;9.26;100.00;98311.06;5013410;28;19921;-53
2022/11/17 05:31:14;;;;;;;;;;;;;;;9.27;100.00;98310.69;5013690;28;20275;-54
2022/11/17 05:33:40;;;;;;;;;;;;;;;9.27;100.00;98318.16;5013832;28;19928;-54
2022/11/17 05:36:06;;;;;;;;;;;;;;;9.28;100.00;98325.28;5013947;28;19917;-54
2022/11/17 05:38:31;;;;;;;;;;;;;;;9.30;100.00;98329.28;5013786;28;19924;-54
2022/11/17 05:40:56;;;;;;;;;;;;;;;9.30;100.00;98336.75;5013410;28;20199;-55
2022/11/17 05:43:22;;;;;;;;;;;;;;;9.35;100.00;98333.72;5013233;28;19917;-55
2022/11/17 05:45:47;;;;;;;;;;;;;;;9.37;100.00;98331.38;5013503;28;19936;-55
2022/11/17 05:48:12;;;;;;;;;;;;;;;9.38;100.00;98337.72;5013081;28;20352;-54
2022/11/17 05:50:37;;;;;;;;;;;;;;;9.39;100.00;98333.81;5014243;28;19914;-55
2022/11/17 05:53:03;;;;;;;;;;;;;;;9.38;100.00;98338.50;5014105;28;19976;-55
2022/11/17 05:55:28;;;;;;;;;;;;;;;9.38;100.00;98341.28;5011133;28;19914;-54
2022/11/17 05:57:55;;;;;;;;;;;;;;;9.31;100.00;98341.13;5012090;28;19914;-56
2022/11/17 06:00:21;;;;;;;;;;;;;;;9.30;100.00;98353.31;5012482;28;20264;-55
2022/11/17 06:02:49;;;;;;;;;;;;;;;9.27;100.00;98346.56;5011621;28;20435;-56
2022/11/17 06:05:15;;;;;;;;;;;;;;;9.28;100.00;98353.69;5011565;28;20246;-57
2022/11/17 06:07:40;;;;;;;;;;;;;;;9.29;100.00;98354.47;5011505;28;20399;-54
2022/11/17 06:10:05;;;;;;;;;;;;;;;9.28;100.00;98353.69;5011341;28;19964;-56
2022/11/17 06:12:30;;;;;;;;;;;;;;;9.28;100.00;98352.84;5011378;28;20029;-56
2022/11/17 06:14:56;;;;;;;;;;;;;;;9.28;100.00;98361.13;5011382;28;19921;-56
2022/11/17 06:17:24;;;;;;;;;;;;;;;9.28;100.00;98361.94;5010570;28;20020;-56
2022/11/17 06:19:53;;;;;;;;;;;;;;;9.30;100.00;98365.16;5011320;28;19914;-55
2022/11/17 06:22:18;;;;;;;;;;;;;;;9.34;100.00;98368.00;5011538;28;20051;-56
2022/11/17 06:24:44;;;;;;;;;;;;;;;9.31;100.00;98368.72;5011520;28;20426;-57
2022/11/17 06:27:12;;;;;;;;;;;;;;;9.29;100.00;98371.00;5011931;28;19975;-57
2022/11/17 06:29:37;;;;;;;;;;;;;;;9.31;100.00;98375.00;5011712;28;20304;-57
2022/11/17 06:32:02;;;;;;;;;;;;;;;9.32;100.00;98373.84;5011404;28;19917;-57
2022/11/17 06:34:28;;;;;;;;;;;;;;;9.31;100.00;98374.22;5011303;28;19924;-58
2022/11/17 06:36:53;;;;;;;;;;;;;;;9.36;100.00;98384.97;5010688;28;20436;-57
2022/11/17 06:39:18;;;;;;;;;;;;;;;9.34;100.00;98370.75;5011214;28;20035;-56
2022/11/17 06:41:43;;;;;;;;;;;;;;;9.33;100.00;98383.72;5011291;28;20019;-58
2022/11/17 06:44:09;;;;;;;;;;;;;;;9.45;100.00;98393.06;5011062;28;19971;-58
2022/11/17 06:46:36;;;;;;;;;;;;;;;9.40;100.00;98382.31;5011094;28;19918;-57
2022/11/17 06:49:05;;;;;;;;;;;;;;;9.38;100.00;98396.47;5011079;28;19917;-58
2022/11/17 06:51:31;;;;;;;;;;;;;;;9.35;100.00;98395.22;5007571;28;20300;-57
2022/11/17 06:53:56;;;;;;;;;;;;;;;9.38;100.00;98399.22;5012020;28;19917;-57
2022/11/17 06:56:22;;;;;;;;;;;;;;;9.32;100.00;98404.19;5012058;28;19962;-56
2022/11/17 06:58:48;;;;;;;;;;;;;;;9.39;100.00;98405.56;5011617;28;19965;-58
2022/11/17 07:01:13;;;;;;;;;;;;;;;9.31;100.00;98397.09;5011807;28;20004;-54
2022/11/17 07:03:39;;;;;;;;;;;;;;;9.26;100.00;98416.69;5011883;28;19914;-56
2022/11/17 07:06:05;;;;;;;;;;;;;;;9.23;100.00;98411.06;5012229;28;20269;-55
2022/11/17 07:08:32;;;;;;;;;;;;;;;9.24;100.00;98415.44;5012310;28;19940;-55
2022/11/17 07:11:02;;;;;;;;;;;;;;;9.30;100.00;98414.81;5012470;28;20011;-56
2022/11/17 07:13:27;;;;;;;;;;;;;;;9.23;100.00;98422.91;5012586;28;19913;-56
2022/11/17 07:15:53;;;;;;;;;;;;;;;9.21;100.00;98422.44;5010376;28;20262;-55
2022/11/17 07:18:18;;;;;;;;;;;;;;;9.21;100.00;98422.44;5009677;28;20265;-55
2022/11/17 07:20:44;;;;;;;;;;;;;;;9.19;100.00;98424.78;5010409;28;20010;-56
2022/11/17 07:23:10;;;;;;;;;;;;;;;9.15;100.00;98430.22;5010832;28;19913;-56
2022/11/17 07:25:35;;;;;;;;;;;;;;;9.13;100.00;98423.44;5009920;28;19914;-55
2022/11/17 07:28:00;;;;;;;;;;;;;;;9.14;100.00;98425.84;5009155;28;19921;-56
2022/11/17 07:30:26;;;;;;;;;;;;;;;9.11;100.00;98423.00;5008989;28;19940;-56
2022/11/17 07:32:51;;;;;;;;;;;;;;;9.08;100.00;98443.81;5008305;28;19925;-56
2022/11/17 07:35:16;;;;;;;;;;;;;;;9.02;100.00;98443.25;5009422;28;19921;-56
2022/11/17 07:37:41;;;;;;;;;;;;;;;8.97;100.00;98446.31;5009670;28;20446;-56
2022/11/17 07:40:07;;;;;;;;;;;;;;;8.98;100.00;98447.09;5010054;28;19917;-57
2022/11/17 07:42:32;;;;;;;;;;;;;;;9.00;100.00;98453.06;5012017;28;19936;-56
2022/11/17 07:44:57;;;;;;;;;;;;;;;8.95;100.00;98453.34;5012361;28;19924;-57
2022/11/17 07:47:22;;;;;;;;;;;;;;;8.94;100.00;98466.31;5012050;28;19918;-57
2022/11/17 07:49:48;;;;;;;;;;;;;;;9.00;100.00;98466.84;5011763;28;19924;-57
2022/11/17 07:52:13;;;;;;;;;;;;;;;8.89;100.00;98456.34;5011918;28;19924;-57
2022/11/17 07:54:39;;;;;;;;;;;;;;;8.87;100.00;98463.34;5011985;28;19918;-58
2022/11/17 07:57:04;;;;;;;;;;;;;;;8.87;100.00;98466.94;5009235;28;20346;-55
2022/11/17 07:59:29;;;;;;;;;;;;;;;8.88;100.00;98463.00;5009983;28;19913;-56
2022/11/17 08:01:55;;;;;;;;;;;;;;;8.87;100.00;98471.63;5009981;28;19917;-56
2022/11/17 08:04:20;;;;;;;;;;;;;;;8.87;100.00;98475.22;5003384;28;19921;-56
2022/11/17 08:06:45;;;;;;;;;;;;;;;8.91;100.00;98478.06;5003407;28;19920;-56
2022/11/17 08:09:13;;;;;;;;;;;;;;;8.91;100.00;98483.56;5009455;28;20262;-56
2022/11/17 08:11:38;;;;;;;;;;;;;;;8.94;100.00;98477.34;5009615;28;19929;-53
2022/11/17 08:14:03;;;;;;;;;;;;;;;8.95;100.00;98489.19;5008281;28;19989;-57
2022/11/17 08:16:29;;;;;;;;;;;;;;;8.93;100.00;98489.50;5009916;28;19917;-57
2022/11/17 08:18:58;;;;;;;;;;;;;;;9.03;100.00;98485.44;5009414;28;20340;-55
2022/11/17 08:21:23;;;;;;;;;;;;;;;8.96;100.00;98486.06;5009766;28;19917;-55
2022/11/17 08:23:50;;;;;;;;;;;;;;;8.96;100.00;98496.31;5009692;28;19940;-56
2022/11/17 08:26:16;;;;;;;;;;;;;;;8.96;100.00;98507.34;5009761;28;19924;-55
2022/11/17 08:28:41;;;;;;;;;;;;;;;9.03;100.00;98496.47;5009663;28;19913;-54
2022/11/17 08:31:06;;;;;;;;;;;;;;;9.00;100.00;98505.44;5009561;28;19952;-56
2022/11/17 08:33:31;;;;;;;;;;;;;;;8.97;100.00;98511.69;5010269;28;20336;-55
2022/11/17 08:35:58;;;;;;;;;;;;;;;8.98;100.00;98522.38;5013449;28;20003;-55
2022/11/17 08:38:27;;;;;;;;;;;;;;;9.01;100.00;98520.84;5013228;28;19975;-55
2022/11/17 08:40:53;;;;;;;;;;;;;;;8.94;100.00;98509.63;5012965;28;19917;-55
2022/11/17 08:43:18;;;;;;;;;;;;;;;8.96;100.00;98515.59;5012915;28;19956;-57
2022/11/17 08:45:43;;;;;;;;;;;;;;;8.93;100.00;98516.28;5012897;28;19918;-56
2022/11/17 08:48:08;;;;;;;;;;;;;;;8.94;100.00;98524.22;5012912;28;19921;-55
2022/11/17 08:50:34;;;;;;;;;;;;;;;8.94;100.00;98526.19;5011571;28;19913;-56
2022/11/17 08:52:59;;;;;;;;;;;;;;;8.90;100.00;98537.13;5011743;28;19925;-55
2022/11/17 08:55:25;;;;;;;;;;;;;;;8.95;100.00;98530.53;5012886;28;19968;-55
2022/11/17 08:57:50;;;;;;;;;;;;;;;8.86;100.00;98522.41;5012397;28;19944;-56
2022/11/17 09:00:15;;;;;;;;;;;;;;;8.83;100.00;98521.16;5012848;28;19954;-56
2022/11/17 09:02:40;;;;;;;;;;;;;;;8.77;100.00;98532.78;5012856;28;20400;-56
2022/11/17 09:05:06;;;;;;;;;;;;;;;8.73;100.00;98525.25;5012731;28;19914;-57
2022/11/17 09:07:32;;;;;;;;;;;;;;;8.73;100.00;98533.50;5011377;28;20008;-56
2022/11/17 09:09:58;;;;;;;;;;;;;;;8.73;100.00;98535.44;5012611;28;19917;-55
2022/11/17 09:12:24;;;;;;;;;;;;;;;8.73;100.00;98538.22;5012238;28;19924;-56
2022/11/17 09:14:49;;;;;;;;;;;;;;;8.71;100.00;98546.84;5008955;28;20019;-55
2022/11/17 09:17:14;;;;;;;;;;;;;;;8.74;100.00;98545.31;5012365;28;20008;-57
2022/11/17 09:19:40;;;;;;;;;;;;;;;8.74;100.00;98546.13;5012756;28;19920;-56
2022/11/17 09:22:05;;;;;;;;;;;;;;;8.77;100.00;98550.16;5012319;28;19913;-55
2022/11/17 09:24:30;;;;;;;;;;;;;;;8.83;100.00;98553.47;5012257;28;19921;-55
2022/11/17 09:26:56;;;;;;;;;;;;;;;8.85;100.00;98554.72;5010719;28;19917;-57
2022/11/17 09:29:21;;;;;;;;;;;;;;;8.92;100.00;98550.53;5012932;28;19921;-55
2022/11/17 09:31:46;;;;;;;;;;;;;;;8.94;100.00;98562.81;5012266;28;19918;-56
2022/11/17 09:34:12;;;;;;;;;;;;;;;8.98;100.00;98571.19;5012197;28;19913;-56
2022/11/17 09:36:37;;;;;;;;;;;;;;;9.02;100.00;98566.59;5012511;28;19917;-56
2022/11/17 09:39:02;;;;;;;;;;;;;;;8.97;100.00;98566.84;5012238;28;20016;-56
2022/11/17 09:41:31;;;;;;;;;;;;;;;9.01;100.00;98576.00;5011841;28;20377;-54
2022/11/17 09:44:02;;;;;;;;;;;;;;;9.05;100.00;98576.91;5011558;28;19929;-55
2022/11/17 09:46:45;;;;;;;;;;;;;;;9.03;100.00;98579.22;5011573;28;19921;-55
2022/11/17 09:49:16;;;;;;;;;;;;;;;9.10;100.00;98578.63;5011962;28;19932;-55
2022/11/17 09:51:43;;;;;;;;;;;;;;;9.10;100.00;98590.44;5012234;28;19972;-56
2022/11/17 09:54:27;;;;;;;;;;;;;;;9.15;100.00;98587.44;5011866;28;20233;-56
2022/11/17 09:56:53;;;;;;;;;;;;;;;9.27;100.00;98591.28;5011484;28;19971;-53
2022/11/17 09:59:20;;;;;;;;;;;;;;;9.26;100.00;98584.19;5011417;28;20329;-55
2022/11/17 10:01:45;;;;;;;;;;;;;;;9.42;100.00;98596.03;5011314;28;19918;-54
2022/11/17 10:04:12;;;;;;;;;;;;;;;9.51;100.00;98593.09;5011923;28;19921;-55
2022/11/17 10:06:37;;;;;;;;;;;;;;;9.57;100.00;98604.69;5011141;28;19917;-55
2022/11/17 10:09:02;;;;;;;;;;;;;;;9.59;100.00;98605.16;5009692;28;19917;-54
2022/11/17 10:11:32;;;;;;;;;;;;;;;9.66;100.00;98605.31;5011082;28;19917;-55
2022/11/17 10:14:17;;;;;;;;;;;;;;;9.69;100.00;98618.44;5009488;28;20111;-55
2022/11/17 10:16:44;;;;;;;;;;;;;;;9.75;100.00;98611.47;5010531;28;19913;-55
2022/11/17 10:19:15;;;;;;;;;;;;;;;9.80;100.00;98602.94;5011111;28;19917;-56
2022/11/17 10:21:40;;;;;;;;;;;;;;;9.79;100.00;98617.91;5011074;28;19947;-54
2022/11/17 10:24:06;;;;;;;;;;;;;;;9.87;100.00;98620.84;5011291;28;20008;-56
2022/11/17 10:26:42;;;;;;;;;;;;;;;9.93;100.00;98609.19;5010939;28;19939;-55
2022/11/17 10:29:10;;;;;;;;;;;;;;;10.00;100.00;98622.38;5011262;28;19921;-55
2022/11/17 10:31:40;;;;;;;;;;;;;;;10.12;100.00;98621.47;5010867;28;19914;-55
2022/11/17 10:34:07;;;;;;;;;;;;;;;10.19;100.00;98618.88;5010898;28;19925;-56
2022/11/17 10:36:32;;;;;;;;;;;;;;;10.25;100.00;98633.22;5010970;28;19917;-55
2022/11/17 10:38:59;;;;;;;;;;;;;;;10.32;100.00;98627.06;5010877;28;19918;-55
2022/11/17 10:41:26;;;;;;;;;;;;;;;10.40;100.00;98626.88;5011163;28;19917;-55
2022/11/17 10:44:02;;;;;;;;;;;;;;;10.44;100.00;98626.97;5010946;28;19965;-55
2022/11/17 10:46:27;;;;;;;;;;;;;;;10.42;100.00;98624.56;5010499;28;20040;-55
2022/11/17 10:48:54;;;;;;;;;;;;;;;10.42;100.00;98654.19;5010285;28;20369;-56
2022/11/17 10:51:21;;;;;;;;;;;;;;;10.48;100.00;98621.53;5010362;28;19917;-56
2022/11/17 10:54:04;;;;;;;;;;;;;;;10.51;100.00;98631.84;5010240;28;19913;-54
2022/11/17 10:56:30;;;;;;;;;;;;;;;10.56;100.00;98635.16;5009262;28;20032;-55
2022/11/17 10:59:00;;;;;;;;;;;;;;;10.68;100.00;98642.50;5010479;28;19959;-54
2022/11/17 11:01:30;;;;;;;;;;;;;;;10.63;99.43;98644.78;5010546;28;19913;-55
2022/11/17 11:03:56;;;;;;;;;;;;;;;10.61;100.00;98643.19;5010231;28;20007;-55
2022/11/17 11:06:21;;;;;;;;;;;;;;;10.57;100.00;98647.03;5010151;28;20008;-55
2022/11/17 11:08:49;;;;;;;;;;;;;;;10.56;100.00;98650.94;5010164;28;19933;-54
2022/11/17 11:11:24;;;;;;;;;;;;;;;10.45;100.00;98659.78;5010625;28;20385;-55
2022/11/17 11:13:56;;;;;;;;;;;;;;;10.41;100.00;98661.66;5008593;28;20310;-54
2022/11/17 11:16:24;;;;;;;;;;;;;;;10.49;99.73;98667.34;5010811;28;19944;-56
2022/11/17 11:18:50;;;;;;;;;;;;;;;10.39;100.00;98663.97;5009661;28;19921;-56
2022/11/17 11:21:22;;;;;;;;;;;;;;;10.43;99.94;98666.84;5009203;28;19982;-55
2022/11/17 11:23:53;;;;;;;;;;;;;;;10.41;100.00;98666.41;5010039;28;19917;-55
2022/11/17 11:26:37;;;;;;;;;;;;;;;10.36;100.00;98675.72;5009769;28;19925;-56
2022/11/17 11:29:06;;;;;;;;;;;;;;;10.34;100.00;98667.00;5010100;28;19920;-53
2022/11/17 11:31:56;;;;;;;;;;;;;;;10.38;100.00;98673.44;5010016;28;19948;-55
2022/11/17 11:34:40;;;;;;;;;;;;;;;10.43;100.00;98681.44;5010003;28;19998;-59
2022/11/17 11:37:05;;;;;;;;;;;;;;;10.41;100.00;98678.25;5010111;28;19917;-56
2022/11/17 11:39:37;;;;;;;;;;;;;;;10.42;100.00;98676.28;5010057;28;20454;-55
2022/11/17 11:42:04;;;;;;;;;;;;;;;10.41;100.00;98672.72;5009972;28;19928;-54
2022/11/17 11:44:36;;;;;;;;;;;;;;;10.42;100.00;98690.13;5009518;28;19918;-55
2022/11/17 11:47:21;;;;;;;;;;;;;;;10.46;100.00;98696.50;5009457;28;19917;-55
2022/11/17 11:49:52;;;;;;;;;;;;;;;10.40;100.00;98695.97;5009640;28;19952;-58
2022/11/17 11:52:20;;;;;;;;;;;;;;;10.43;99.48;98698.03;5009828;28;20399;-55
2022/11/17 11:54:45;;;;;;;;;;;;;;;10.44;98.09;98702.41;5009600;28;19971;-55
2022/11/17 11:57:13;;;;;;;;;;;;;;;10.41;98.82;98700.34;5009977;28;19929;-55
2022/11/17 11:59:40;;;;;;;;;;;;;;;10.48;98.83;98688.66;5009772;28;19917;-55
2022/11/17 12:02:11;;;;;;;;;;;;;;;10.51;98.76;98710.09;5002066;28;19917;-55
2022/11/17 12:04:46;;;;;;;;;;;;;;;10.49;97.86;98701.34;5009549;28;19914;-56
2022/11/17 12:07:30;;;;;;;;;;;;;;;10.41;97.66;98705.09;5010249;28;19925;-55
2022/11/17 12:10:14;;;;;;;;;;;;;;;10.45;97.15;98714.25;5015813;28;19979;-56
2022/11/17 12:12:39;;;;;;;;;;;;;;;10.35;97.33;98700.94;5015489;28;20391;-55
2022/11/17 12:15:08;;;;;;;;;;;;;;;10.42;97.97;98712.22;5014265;28;19913;-54
2022/11/17 12:17:33;;;;;;;;;;;;;;;10.43;97.79;98709.09;5015843;28;20008;-55
2022/11/17 12:20:01;;;;;;;;;;;;;;;10.51;97.17;98703.72;5012987;28;20056;-56
2022/11/17 12:22:29;;;;;;;;;;;;;;;10.49;96.88;98708.81;5013986;28;19925;-55
2022/11/17 12:25:12;;;;;;;;;;;;;;;10.49;96.79;98714.34;5013788;28;19917;-54
2022/11/17 12:27:37;;;;;;;;;;;;;;;10.54;96.72;98716.84;5014702;28;19971;-55
2022/11/17 12:30:04;;;;;;;;;;;;;;;10.65;95.88;98723.44;5012610;28;19922;-56
2022/11/17 12:32:48;;;;;;;;;;;;;;;10.52;95.28;98727.47;5013816;28;19913;-56
2022/11/17 12:35:32;;;;;;;;;;;;;;;10.51;95.48;98734.13;5007123;28;19917;-55
2022/11/17 12:38:13;;;;;;;;;;;;;;;10.51;95.96;98731.38;5013335;28;19925;-55
2022/11/17 12:40:38;;;;;;;;;;;;;;;10.45;95.86;98733.59;5014825;28;19968;-55
2022/11/17 12:43:15;;;;;;;;;;;;;;;10.43;95.39;98733.97;5015439;28;19913;-55
2022/11/17 12:46:03;;;;;;;;;;;;;;;10.43;96.95;98736.75;5015401;28;19917;-54
2022/11/17 12:48:33;;;;;;;;;;;;;;;10.41;97.54;98736.28;5009625;28;19917;-55
2022/11/17 12:51:01;;;;;;;;;;;;;;;10.38;96.44;98739.78;5015964;28;20368;-56
2022/11/17 12:53:40;;;;;;;;;;;;;;;10.35;97.67;98740.47;5015475;28;19940;-56
2022/11/17 12:56:30;;;;;;;;;;;;;;;10.34;98.47;98738.06;5015556;28;19918;-55
2022/11/17 12:59:16;;;;;;;;;;;;;;;10.32;98.44;98745.91;5000726;28;19968;-55
2022/11/17 13:02:00;;;;;;;;;;;;;;;10.25;99.91;98743.75;4995434;28;20004;-55
2022/11/17 13:04:40;;;;;;;;;;;;;;;10.22;100.00;98748.03;4995624;28;19913;-58
2022/11/17 13:07:06;;;;;;;;;;;;;;;10.22;100.00;98741.69;4995505;28;19917;-55
2022/11/17 13:09:35;;;;;;;;;;;;;;;10.20;100.00;98749.56;4995701;28;19917;-55
2022/11/17 13:12:03;;;;;;;;;;;;;;;10.20;100.00;98755.88;5007135;28;19924;-56
2022/11/17 13:14:29;;;;;;;;;;;;;;;10.22;100.00;98739.75;5009919;28;20380;-55
2022/11/17 13:16:55;;;;;;;;;;;;;;;10.24;100.00;98747.66;5013591;28;19917;-56
2022/11/17 13:19:26;;;;;;;;;;;;;;;10.30;100.00;98749.81;5012401;28;20380;-54